Time;durP1;ratioP1;P1;durP2;ratioP2;P2;SDS_P1;SDS_P2;PMS_P1;PMS_P2;Temp;Humidity;BMP_temperature;BMP_pressure;BME280_temperature;BME280_humidity;BME280_pressure;Samples;Min_cycle;Max_cycle;Signal;HPM_P1;HPM_P2
2022/04/20 00:01:42;;;;;;;0.60;0.10;;;10.80;99.90;;;;;;5115086;28;20473;-76
2022/04/20 00:04:11;;;;;;;0.60;0.10;;;10.80;99.90;;;;;;5115176;28;20428;-76
2022/04/20 00:06:39;;;;;;;1.80;1.70;;;10.70;99.90;;;;;;5122543;28;20467;-75
2022/04/20 00:09:07;;;;;;;0.60;0.10;;;10.60;99.90;;;;;;5125056;28;20450;-76
2022/04/20 00:11:35;;;;;;;0.60;0.10;;;10.60;99.90;;;;;;5126446;28;20491;-76
2022/04/20 00:14:04;;;;;;;0.60;0.10;;;10.50;99.90;;;;;;5128345;28;20466;-75
2022/04/20 00:16:32;;;;;;;0.60;0.10;;;10.40;99.90;;;;;;5122225;28;20463;-75
2022/04/20 00:19:00;;;;;;;0.60;0.10;;;10.40;99.90;;;;;;5114700;28;20443;-75
2022/04/20 00:21:28;;;;;;;0.60;0.10;;;10.40;99.90;;;;;;5114302;28;20481;-77
2022/04/20 00:23:56;;;;;;;0.60;0.10;;;10.30;99.90;;;;;;5122404;28;20551;-76
2022/04/20 00:26:24;;;;;;;0.60;0.10;;;10.30;99.90;;;;;;5116261;28;20474;-76
2022/04/20 00:28:52;;;;;;;0.60;0.10;;;10.30;99.90;;;;;;5103539;28;20456;-76
2022/04/20 00:31:21;;;;;;;0.60;0.20;;;10.40;99.90;;;;;;5108935;28;20793;-76
2022/04/20 00:33:49;;;;;;;0.60;0.30;;;10.40;99.90;;;;;;5114313;28;20446;-77
2022/04/20 00:36:17;;;;;;;0.60;0.10;;;10.40;99.90;;;;;;5113412;28;20479;-77
2022/04/20 00:38:45;;;;;;;0.60;0.10;;;10.50;99.90;;;;;;5107312;28;20854;-77
2022/04/20 00:41:13;;;;;;;0.60;0.10;;;10.50;99.90;;;;;;5105668;28;20454;-76
2022/04/20 00:43:42;;;;;;;0.60;0.10;;;10.50;99.90;;;;;;5113833;28;20443;-76
2022/04/20 00:46:11;;;;;;;0.60;0.10;;;10.50;99.90;;;;;;5112359;28;20463;-76
2022/04/20 00:48:42;;;;;;;1.17;0.93;;;10.50;99.90;;;;;;5114857;28;20455;-76
2022/04/20 00:51:10;;;;;;;0.60;0.20;;;10.50;99.90;;;;;;5113738;28;20482;-76
2022/04/20 00:53:38;;;;;;;0.60;0.10;;;10.50;99.90;;;;;;5113633;28;20427;-75
2022/04/20 00:56:06;;;;;;;0.60;0.10;;;10.40;99.90;;;;;;5113191;28;20909;-75
2022/04/20 00:58:35;;;;;;;0.60;0.10;;;10.40;99.90;;;;;;5114430;28;20447;-76
2022/04/20 01:01:03;;;;;;;0.60;0.10;;;10.40;99.90;;;;;;5113998;28;20448;-77
2022/04/20 01:03:31;;;;;;;0.60;0.10;;;10.40;99.90;;;;;;5113277;28;20479;-76
2022/04/20 01:06:01;;;;;;;0.60;0.10;;;10.40;99.90;;;;;;5113855;28;20482;-77
2022/04/20 01:08:29;;;;;;;0.60;0.13;;;10.30;99.90;;;;;;5117287;28;20762;-75
2022/04/20 01:10:57;;;;;;;0.60;0.10;;;10.30;99.90;;;;;;5117212;28;20439;-75
2022/04/20 01:13:25;;;;;;;1.50;1.40;;;10.20;99.90;;;;;;5116442;28;20750;-76
2022/04/20 01:15:53;;;;;;;0.60;0.10;;;10.20;99.90;;;;;;5114668;28;20475;-76
2022/04/20 01:18:21;;;;;;;0.60;0.10;;;10.20;99.90;;;;;;5115640;28;20882;-76
2022/04/20 01:20:50;;;;;;;0.60;0.10;;;10.10;99.90;;;;;;5116513;28;20449;-75
2022/04/20 01:23:18;;;;;;;0.60;0.10;;;10.10;99.90;;;;;;5115305;28;21092;-76
2022/04/20 01:25:47;;;;;;;0.60;0.10;;;10.10;99.90;;;;;;5114579;28;20516;-76
2022/04/20 01:28:17;;;;;;;0.60;0.10;;;10.10;99.90;;;;;;5115278;28;20455;-75
2022/04/20 01:30:45;;;;;;;0.60;0.10;;;10.00;99.90;;;;;;5116597;28;20530;-76
2022/04/20 01:33:13;;;;;;;0.60;0.10;;;10.00;99.90;;;;;;5115433;28;20451;-75
2022/04/20 01:35:41;;;;;;;0.60;0.10;;;10.00;99.90;;;;;;5100540;28;20490;-77
2022/04/20 01:38:10;;;;;;;0.60;0.10;;;10.00;99.90;;;;;;5112198;28;20458;-76
2022/04/20 01:40:38;;;;;;;0.60;0.10;;;10.00;99.90;;;;;;5112261;28;20530;-77
2022/04/20 01:43:06;;;;;;;0.70;0.30;;;9.90;99.90;;;;;;5114031;28;20486;-78
2022/04/20 01:45:34;;;;;;;0.60;0.10;;;9.90;99.90;;;;;;5114268;28;21044;-76
2022/04/20 01:48:02;;;;;;;0.60;0.20;;;9.80;99.90;;;;;;5116121;28;20447;-76
2022/04/20 01:50:30;;;;;;;1.07;0.97;;;9.80;99.90;;;;;;5116173;28;20455;-76
2022/04/20 01:52:58;;;;;;;0.60;0.10;;;9.70;99.90;;;;;;5115545;28;20444;-76
2022/04/20 01:55:28;;;;;;;0.60;0.10;;;9.70;99.90;;;;;;5114592;28;20466;-76
2022/04/20 01:57:56;;;;;;;0.60;0.10;;;9.70;99.90;;;;;;5116551;28;20447;-77
2022/04/20 02:00:24;;;;;;;1.83;0.87;;;9.70;99.90;;;;;;5117489;28;20942;-74
2022/04/20 02:02:51;;;;;;;0.60;0.20;;;9.70;99.90;;;;;;5115551;28;20478;-76
2022/04/20 02:05:19;;;;;;;0.60;0.10;;;9.70;99.90;;;;;;5114154;28;20464;-76
2022/04/20 02:07:47;;;;;;;0.77;0.30;;;9.60;99.90;;;;;;5116025;28;20443;-76
2022/04/20 02:10:15;;;;;;;0.60;0.10;;;9.60;99.90;;;;;;5114499;28;20440;-76
2022/04/20 02:12:44;;;;;;;0.60;0.10;;;9.60;99.90;;;;;;5118450;28;20797;-75
2022/04/20 02:15:12;;;;;;;0.60;0.20;;;9.60;99.90;;;;;;5119684;28;20572;-76
2022/04/20 02:17:40;;;;;;;0.70;0.50;;;12.20;99.90;;;;;;5115977;28;20454;-76
2022/04/20 02:20:09;;;;;;;0.60;0.20;;;9.50;99.90;;;;;;5113400;28;20827;-76
2022/04/20 02:22:37;;;;;;;0.60;0.20;;;9.50;99.90;;;;;;5113805;28;20472;-76
2022/04/20 02:25:05;;;;;;;0.60;0.10;;;9.40;99.90;;;;;;5112909;28;20543;-77
2022/04/20 02:27:34;;;;;;;0.60;0.10;;;;;;;;;;5092672;28;20441;-75
2022/04/20 02:30:04;;;;;;;0.60;0.10;;;;;;;;;;5092901;28;20441;-76
2022/04/20 02:32:32;;;;;;;0.60;0.10;;;9.30;99.90;;;;;;5093447;28;20449;-77
2022/04/20 02:35:00;;;;;;;0.60;0.10;;;9.30;99.90;;;;;;5092225;28;20535;-76
2022/04/20 02:37:29;;;;;;;0.60;0.10;;;9.30;99.90;;;;;;5091696;28;20456;-76
2022/04/20 02:39:57;;;;;;;0.60;0.10;;;9.30;99.90;;;;;;5101014;28;20459;-76
2022/04/20 02:42:25;;;;;;;0.60;0.10;;;9.30;99.90;;;;;;5092800;28;20528;-75
2022/04/20 02:44:53;;;;;;;0.60;0.10;;;9.30;99.90;;;;;;5091704;28;20461;-76
2022/04/20 02:47:22;;;;;;;0.60;0.10;;;9.30;99.90;;;;;;5091787;28;20818;-76
2022/04/20 02:49:50;;;;;;;0.60;0.10;;;9.20;99.90;;;;;;5101852;28;20452;-76
2022/04/20 02:52:18;;;;;;;0.60;0.10;;;9.30;99.90;;;;;;5109245;28;20461;-76
2022/04/20 02:54:46;;;;;;;0.60;0.10;;;9.30;99.90;;;;;;5094054;28;20435;-76
2022/04/20 02:57:15;;;;;;;0.60;0.10;;;9.30;99.90;;;;;;5092668;28;20497;-75
2022/04/20 02:59:42;;;;;;;0.60;0.10;;;9.30;99.90;;;;;;5092840;28;20449;-76
2022/04/20 03:02:10;;;;;;;0.60;0.13;;;9.30;99.90;;;;;;5109563;28;20447;-76
2022/04/20 03:04:40;;;;;;;0.60;0.10;;;9.30;99.90;;;;;;5115553;28;20486;-76
2022/04/20 03:07:07;;;;;;;0.60;0.10;;;9.30;99.90;;;;;;5115710;28;20474;-76
2022/04/20 03:09:35;;;;;;;0.60;0.10;;;9.30;99.90;;;;;;5115785;28;20458;-76
2022/04/20 03:12:04;;;;;;;0.60;0.10;;;9.20;99.90;;;;;;5116113;28;20442;-77
2022/04/20 03:14:32;;;;;;;0.60;0.10;;;9.20;99.90;;;;;;5115704;28;20443;-75
2022/04/20 03:17:00;;;;;;;0.60;0.10;;;9.20;99.90;;;;;;5114339;28;20474;-76
2022/04/20 03:19:28;;;;;;;0.60;0.10;;;9.20;99.90;;;;;;5114798;28;20447;-76
2022/04/20 03:21:57;;;;;;;0.60;0.10;;;9.20;99.90;;;;;;5115427;28;20504;-76
2022/04/20 03:24:25;;;;;;;0.60;0.10;;;9.20;99.90;;;;;;5115064;28;20482;-76
2022/04/20 03:26:53;;;;;;;0.60;0.10;;;9.10;99.90;;;;;;5100464;28;20464;-76
2022/04/20 03:29:21;;;;;;;0.60;0.10;;;9.10;99.90;;;;;;5095752;28;20491;-76
2022/04/20 03:31:49;;;;;;;0.60;0.10;;;9.00;99.90;;;;;;5095265;28;20540;-76
2022/04/20 03:34:17;;;;;;;0.60;0.10;;;9.00;99.90;;;;;;5106245;28;20493;-76
2022/04/20 03:36:46;;;;;;;0.60;0.10;;;9.00;99.90;;;;;;5114663;28;20838;-76
2022/04/20 03:39:15;;;;;;;0.60;0.10;;;9.00;99.90;;;;;;5115219;28;20431;-75
2022/04/20 03:41:44;;;;;;;0.60;0.20;;;8.90;99.90;;;;;;5115151;28;20432;-76
2022/04/20 03:44:11;;;;;;;1.70;1.60;;;8.90;99.90;;;;;;5115067;28;20841;-76
2022/04/20 03:46:39;;;;;;;0.60;0.10;;;8.80;99.90;;;;;;5114606;28;20475;-75
2022/04/20 03:49:08;;;;;;;0.60;0.10;;;8.80;99.90;;;;;;5115403;28;20542;-74
2022/04/20 03:51:36;;;;;;;0.60;0.10;;;8.80;99.90;;;;;;5116631;28;20451;-76
2022/04/20 03:54:04;;;;;;;1.23;0.40;;;8.70;99.90;;;;;;5118267;28;20467;-76
2022/04/20 03:59:15;;;;;;;0.60;0.10;;;8.60;99.90;;;;;;5116518;28;20452;-76
2022/04/20 04:01:44;;;;;;;0.60;0.30;;;9.90;99.90;;;;;;5117402;28;20478;-75
2022/04/20 04:04:11;;;;;;;0.60;0.10;;;8.40;99.90;;;;;;5125876;28;20479;-76
2022/04/20 04:06:40;;;;;;;0.60;0.10;;;8.40;99.90;;;;;;5124897;28;20468;-75
2022/04/20 04:09:08;;;;;;;0.60;0.10;;;8.30;99.90;;;;;;5123452;28;20454;-76
2022/04/20 04:11:37;;;;;;;0.60;0.20;;;8.20;99.90;;;;;;5118730;28;20527;-76
2022/04/20 04:14:05;;;;;;;0.60;0.10;;;8.20;99.90;;;;;;5115293;28;20458;-76
2022/04/20 04:16:36;;;;;;;4.60;1.60;;;8.20;99.90;;;;;;5113975;28;20481;-76
2022/04/20 04:19:05;;;;;;;0.60;0.10;;;8.20;99.90;;;;;;5115304;28;20432;-77
2022/04/20 04:21:35;;;;;;;0.60;0.20;;;8.20;99.90;;;;;;5115436;28;20805;-75
2022/04/20 04:24:04;;;;;;;0.60;0.20;;;8.10;99.90;;;;;;5114827;28;20513;-76
2022/04/20 04:26:32;;;;;;;0.60;0.10;;;8.10;99.90;;;;;;5102589;28;20507;-76
2022/04/20 04:29:02;;;;;;;0.60;0.10;;;6.60;99.90;;;;;;5094522;28;20825;-75
2022/04/20 04:31:30;;;;;;;0.60;0.20;;;8.10;99.90;;;;;;5094720;28;20479;-77
2022/04/20 04:33:58;;;;;;;0.60;0.10;;;8.00;99.90;;;;;;5100454;28;20478;-76
2022/04/20 04:36:26;;;;;;;0.60;0.10;;;8.00;99.90;;;;;;5115780;28;20940;-77
2022/04/20 04:38:54;;;;;;;0.60;0.10;;;8.00;99.90;;;;;;5116055;28;20463;-76
2022/04/20 04:41:22;;;;;;;0.60;0.10;;;8.00;99.90;;;;;;5115744;28;20451;-76
2022/04/20 04:43:50;;;;;;;0.60;0.20;;;8.10;99.90;;;;;;5114503;28;20478;-76
2022/04/20 04:49:04;;;;;;;0.60;0.10;;;8.40;99.90;;;;;;5113620;28;20474;-77
2022/04/20 04:51:32;;;;;;;0.60;0.10;;;8.10;99.90;;;;;;5114138;28;20842;-76
2022/04/20 04:54:00;;;;;;;0.60;0.20;;;8.20;99.90;;;;;;5103514;28;20917;-78
2022/04/20 04:56:28;;;;;;;0.60;0.10;;;8.20;99.90;;;;;;5092619;28;20997;-77
2022/04/20 04:58:56;;;;;;;0.60;0.10;;;8.20;99.90;;;;;;5093337;28;20583;-77
2022/04/20 05:01:25;;;;;;;0.60;0.10;;;8.20;99.90;;;;;;5094036;28;20954;-77
2022/04/20 05:03:53;;;;;;;0.60;0.10;;;8.20;99.90;;;;;;5097592;28;20479;-77
2022/04/20 05:06:21;;;;;;;0.60;0.10;;;;;;;;;;5096265;28;20516;-76
2022/04/20 05:08:50;;;;;;;0.60;0.10;;;8.30;99.90;;;;;;5093291;28;20546;-76
2022/04/20 05:11:19;;;;;;;0.60;0.10;;;8.30;99.90;;;;;;5092616;28;20506;-77
2022/04/20 05:13:46;;;;;;;0.60;0.20;;;8.40;99.90;;;;;;5094828;28;20918;-77
2022/04/20 05:16:14;;;;;;;0.60;0.20;;;8.40;99.90;;;;;;5101562;28;20503;-76
2022/04/20 05:18:44;;;;;;;0.60;0.10;;;8.40;99.90;;;;;;5104885;28;20451;-76
2022/04/20 05:21:12;;;;;;;0.60;0.10;;;8.40;99.90;;;;;;5104018;28;20451;-77
2022/04/20 05:23:40;;;;;;;0.60;0.10;;;;;;;;;;5107082;28;20482;-77
2022/04/20 05:26:08;;;;;;;0.60;0.10;;;8.50;99.90;;;;;;5105253;28;20553;-79
2022/04/20 05:28:36;;;;;;;0.60;0.10;;;8.50;99.90;;;;;;5118836;28;20451;-78
2022/04/20 05:31:04;;;;;;;0.93;0.60;;;8.60;99.90;;;;;;5120581;28;20462;-77
2022/04/20 05:33:34;;;;;;;0.60;0.10;;;8.60;99.90;;;;;;5121980;28;20846;-79
2022/04/20 05:36:04;;;;;;;0.60;0.20;;;;;;;;;;5117774;28;20887;-78
2022/04/20 05:41:40;;;;;;;27.60;14.40;;;8.70;99.90;;;;;;5118587;28;20473;-77
2022/04/20 05:44:09;;;;;;;0.60;0.10;;;8.70;99.90;;;;;;5117693;28;20424;-79
2022/04/20 05:46:38;;;;;;;0.60;0.10;;;;;;;;;;5100449;28;20459;-78
2022/04/20 05:49:06;;;;;;;2.10;1.90;;;9.00;99.90;;;;;;5108303;28;20432;-79
2022/04/20 05:51:36;;;;;;;1.20;0.97;;;;;;;;;;5119533;28;20453;-78
2022/04/20 05:54:04;;;;;;;0.60;0.10;;;;;;;;;;5128058;28;20436;-78
2022/04/20 05:56:32;;;;;;;0.60;0.10;;;9.20;99.90;;;;;;5106132;28;20474;-78
2022/04/20 05:59:00;;;;;;;0.60;0.27;;;9.30;99.90;;;;;;5098163;28;20447;-78
2022/04/20 06:01:28;;;;;;;0.60;0.10;;;9.30;99.90;;;;;;5106762;28;20531;-80
2022/04/20 06:03:57;;;;;;;0.60;0.10;;;9.40;99.90;;;;;;5106481;28;20460;-78
2022/04/20 06:06:25;;;;;;;0.60;0.10;;;9.50;99.90;;;;;;5107240;28;20805;-81
2022/04/20 06:08:55;;;;;;;0.60;0.10;;;;;;;;;;5104366;28;20950;-80
2022/04/20 06:11:24;;;;;;;0.60;0.10;;;9.50;99.90;;;;;;5102819;28;20992;-80
2022/04/20 06:13:52;;;;;;;0.70;0.27;;;;;;;;;;5111941;28;20416;-81
2022/04/20 06:16:20;;;;;;;0.60;0.10;;;9.40;99.90;;;;;;5114140;28;20457;-81
2022/04/20 06:18:48;;;;;;;0.60;0.10;;;9.40;99.90;;;;;;5106516;28;20459;-79
2022/04/20 06:21:17;;;;;;;0.60;0.10;;;9.40;99.90;;;;;;5118784;28;20459;-79
2022/04/20 06:23:45;;;;;;;0.60;0.20;;;9.50;99.90;;;;;;5120507;28;20451;-77
2022/04/20 06:26:14;;;;;;;0.60;0.10;;;9.50;99.90;;;;;;5117808;28;20500;-76
2022/04/20 06:28:42;;;;;;;0.60;0.10;;;9.50;99.90;;;;;;5106229;28;20492;-77
2022/04/20 06:31:10;;;;;;;0.60;0.10;;;9.50;99.90;;;;;;5106594;28;20623;-77
2022/04/20 06:33:38;;;;;;;0.60;0.30;;;9.50;99.90;;;;;;5101159;28;20506;-79
2022/04/20 06:36:06;;;;;;;0.60;0.20;;;9.60;99.90;;;;;;5103654;28;20474;-78
2022/04/20 06:38:34;;;;;;;0.60;0.10;;;9.70;99.90;;;;;;5116692;28;20454;-78
2022/04/20 06:41:03;;;;;;;0.60;0.10;;;;;;;;;;5117273;28;20431;-76
2022/04/20 06:43:35;;;;;;;0.60;0.10;;;9.80;99.90;;;;;;5118872;28;20466;-79
2022/04/20 06:46:03;;;;;;;0.60;0.10;;;;;;;;;;5125598;28;20482;-79
2022/04/20 06:48:31;;;;;;;0.60;0.10;;;9.90;99.90;;;;;;5130318;28;20447;-79
2022/04/20 06:51:01;;;;;;;0.60;0.10;;;10.10;99.90;;;;;;5125726;28;20535;-79
2022/04/20 06:59:02;;;;;;;0.60;0.10;;;10.20;99.90;;;;;;5117669;28;20553;-81
2022/04/20 07:01:30;;;;;;;0.60;0.20;;;10.20;99.90;;;;;;5119672;28;20452;-81
2022/04/20 07:03:59;;;;;;;0.60;0.10;;;10.30;99.90;;;;;;5118360;28;20999;-79
2022/04/20 07:06:28;;;;;;;0.60;0.13;;;10.40;99.90;;;;;;5119368;28;20563;-81
2022/04/20 07:08:56;;;;;;;0.60;0.10;;;;;;;;;;5117272;28;20860;-81
2022/04/20 07:11:28;;;;;;;0.60;0.20;;;10.50;99.90;;;;;;5119014;28;20440;-80
2022/04/20 07:13:56;;;;;;;0.60;0.20;;;10.60;99.90;;;;;;5127065;28;20451;-79
2022/04/20 07:16:33;;;;;;;0.60;0.10;;;10.60;99.90;;;;;;5125281;28;20479;-79
2022/04/20 07:19:02;;;;;;;0.60;0.10;;;10.60;99.90;;;;;;5122720;28;20479;-79
2022/04/20 07:21:31;;;;;;;0.60;0.20;;;;;;;;;;5120984;28;20484;-79
2022/04/20 07:23:59;;;;;;;0.60;0.10;;;10.70;99.90;;;;;;5119508;28;20448;-80
2022/04/20 07:26:27;;;;;;;7.90;7.33;;;10.80;99.90;;;;;;5123758;28;20487;-78
2022/04/20 07:28:55;;;;;;;0.60;0.23;;;10.80;99.90;;;;;;5126145;28;20462;-80
2022/04/20 07:31:23;;;;;;;1.03;0.83;;;11.00;99.90;;;;;;5118954;28;20542;-79
2022/04/20 07:33:53;;;;;;;0.60;0.10;;;11.00;99.90;;;;;;5118113;28;20451;-80
2022/04/20 07:36:21;;;;;;;0.60;0.20;;;11.00;99.90;;;;;;5119679;28;20548;-81
2022/04/20 07:38:49;;;;;;;0.60;0.10;;;11.10;99.90;;;;;;5119867;28;20452;-81
2022/04/20 07:41:18;;;;;;;0.60;0.10;;;11.10;99.90;;;;;;5122833;28;20436;-80
2022/04/20 07:43:46;;;;;;;0.60;0.10;;;;;;;;;;5118340;28;20439;-78
2022/04/20 07:46:16;;;;;;;0.80;0.23;;;11.30;99.90;;;;;;5129820;28;20567;-81
2022/04/20 07:48:44;;;;;;;0.60;0.20;;;11.40;99.90;;;;;;5121114;28;20488;-79
2022/04/20 07:51:14;;;;;;;0.60;0.10;;;;;;;;;;5109358;28;20437;-79
2022/04/20 07:53:42;;;;;;;0.70;0.30;;;11.40;99.90;;;;;;5109009;28;20454;-80
2022/04/20 07:56:11;;;;;;;0.60;0.20;;;;;;;;;;5124909;28;20578;-77
2022/04/20 07:58:39;;;;;;;0.60;0.20;;;;;;;;;;5137101;28;20511;-77
2022/04/20 08:01:08;;;;;;;0.60;0.10;;;11.50;99.90;;;;;;5136685;28;20447;-79
2022/04/20 08:03:36;;;;;;;0.60;0.10;;;11.60;99.90;;;;;;5122201;28;20505;-80
2022/04/20 08:06:04;;;;;;;0.60;0.10;;;11.70;99.90;;;;;;5123105;28;20477;-80
2022/04/20 08:08:34;;;;;;;0.60;0.20;;;11.70;99.90;;;;;;5121412;28;20562;-79
2022/04/20 08:11:04;;;;;;;0.80;0.50;;;11.90;99.90;;;;;;5121829;28;20883;-80
2022/04/20 08:16:18;;;;;;;0.60;0.10;;;11.90;99.90;;;;;;5104366;28;20475;-80
2022/04/20 08:18:46;;;;;;;0.60;0.10;;;11.90;99.90;;;;;;5099966;28;21010;-80
2022/04/20 08:21:16;;;;;;;0.60;0.10;;;11.90;99.90;;;;;;5101351;28;20441;-81
2022/04/20 08:23:45;;;;;;;0.60;0.20;;;11.90;99.90;;;;;;5100019;28;20453;-80
2022/04/20 08:26:14;;;;;;;0.80;0.30;;;12.00;99.90;;;;;;5108134;28;20482;-81
2022/04/20 08:28:42;;;;;;;0.70;0.23;;;12.00;99.90;;;;;;5122902;28;20536;-81
2022/04/20 08:31:10;;;;;;;0.60;0.30;;;12.00;99.90;;;;;;5111175;28;20446;-82
2022/04/20 08:33:38;;;;;;;0.60;0.30;;;;;;;;;;5107344;28;20433;-81
2022/04/20 08:36:07;;;;;;;0.60;0.10;;;;;;;;;;5111208;28;20456;-81
2022/04/20 08:38:36;;;;;;;0.60;0.10;;;;;;;;;;5128218;28;20454;-83
2022/04/20 08:41:06;;;;;;;0.80;0.50;;;;;;;;;;5112478;28;20449;-80
2022/04/20 08:43:36;;;;;;;0.60;0.10;;;12.20;99.90;;;;;;5120873;28;20482;-80
2022/04/20 08:46:04;;;;;;;0.60;0.10;;;12.30;99.90;;;;;;5112378;28;20485;-81
2022/04/20 08:48:32;;;;;;;0.60;0.20;;;12.30;99.90;;;;;;5103393;28;20445;-81
2022/04/20 08:51:03;;;;;;;0.60;0.10;;;12.40;99.90;;;;;;5114009;28;20819;-81
2022/04/20 08:53:31;;;;;;;0.60;0.20;;;12.40;99.90;;;;;;5102833;28;20482;-80
2022/04/20 08:58:47;;;;;;;0.70;0.40;;;12.60;99.90;;;;;;5120239;28;20520;-81
2022/04/20 09:01:16;;;;;;;0.60;0.10;;;12.60;99.90;;;;;;5120644;28;20834;-80
2022/04/20 09:03:46;;;;;;;0.60;0.10;;;12.60;99.90;;;;;;5117911;28;20492;-79
2022/04/20 09:06:19;;;;;;;0.60;0.10;;;12.70;99.90;;;;;;5116110;28;20477;-80
2022/04/20 09:08:48;;;;;;;0.60;0.10;;;12.70;99.90;;;;;;5100164;28;20447;-80
2022/04/20 09:11:16;;;;;;;0.60;0.10;;;12.80;99.90;;;;;;5120836;28;20471;-79
2022/04/20 09:13:47;;;;;;;0.80;0.40;;;12.90;99.90;;;;;;5126037;28;20505;-80
2022/04/20 09:16:15;;;;;;;2.57;0.40;;;;;;;;;;5120389;28;20461;-80
2022/04/20 09:18:50;;;;;;;1.73;1.23;;;12.90;99.90;;;;;;5127247;28;20443;-78
2022/04/20 09:21:20;;;;;;;0.97;0.83;;;;;;;;;;5112640;28;20470;-80
2022/04/20 09:23:49;;;;;;;0.70;0.30;;;12.70;99.90;;;;;;5107755;28;20485;-79
2022/04/20 09:26:17;;;;;;;0.70;0.20;;;12.80;99.90;;;;;;5107220;28;21049;-81
2022/04/20 09:29:08;;;;;;;0.60;0.10;;;12.80;99.90;;;;;;5112195;28;20518;-79
2022/04/20 09:31:43;;;;;;;0.60;0.27;;;12.90;99.90;;;;;;5113721;28;20482;-80
2022/04/20 09:34:35;;;;;;;0.60;0.30;;;13.00;99.90;;;;;;5098058;28;20456;-78
2022/04/20 09:37:16;;;;;;;1.50;0.83;;;13.10;99.90;;;;;;5094913;28;20476;-79
2022/04/20 09:39:47;;;;;;;0.60;0.10;;;13.10;99.90;;;;;;5109329;28;20436;-79
2022/04/20 09:42:15;;;;;;;0.60;0.30;;;;;;;;;;5116119;28;20445;-78
2022/04/20 09:44:56;;;;;;;0.70;0.30;;;13.30;99.90;;;;;;5122201;28;20449;-77
2022/04/20 09:50:11;;;;;;;0.70;0.30;;;13.40;99.90;;;;;;5111796;28;20438;-79
2022/04/20 09:52:41;;;;;;;0.60;0.20;;;13.40;99.90;;;;;;5112097;28;20451;-79
2022/04/20 09:55:12;;;;;;;0.60;0.10;;;13.50;99.90;;;;;;5101017;28;20462;-80
2022/04/20 09:57:41;;;;;;;0.87;0.30;;;13.50;99.90;;;;;;5113518;28;20947;-81
2022/04/20 10:00:13;;;;;;;0.60;0.10;;;13.60;99.90;;;;;;5126077;28;20551;-79
2022/04/20 10:02:50;;;;;;;0.60;0.10;;;13.70;99.90;;;;;;5113836;28;20426;-80
2022/04/20 10:05:19;;;;;;;0.97;0.50;;;13.90;99.90;;;;;;5116951;28;20574;-79
2022/04/20 10:07:53;;;;;;;0.60;0.10;;;14.00;99.90;;;;;;5111738;28;20476;-80
2022/04/20 10:10:21;;;;;;;0.80;0.53;;;14.00;99.90;;;;;;5116569;28;20441;-79
2022/04/20 10:12:54;;;;;;;0.60;0.10;;;14.20;99.90;;;;;;5114466;28;20531;-80
2022/04/20 10:18:17;;;;;;;0.70;0.53;;;;;;;;;;5130485;28;20462;-81
2022/04/20 10:20:52;;;;;;;0.60;0.10;;;;;;;;;;5122230;28;20441;-79
2022/04/20 10:23:21;;;;;;;0.80;0.40;;;14.20;99.90;;;;;;5118487;28;20444;-77
2022/04/20 10:25:51;;;;;;;0.83;0.60;;;;;;;;;;5116518;28;20551;-80
2022/04/20 10:28:36;;;;;;;0.70;0.30;;;14.20;99.90;;;;;;5118165;28;20480;-77
2022/04/20 10:31:20;;;;;;;0.60;0.10;;;14.30;99.90;;;;;;5120390;28;20452;-80
2022/04/20 10:33:58;;;;;;;0.60;0.20;;;14.40;99.90;;;;;;5115440;28;20482;-77
2022/04/20 10:36:35;;;;;;;2.40;0.70;;;14.50;99.90;;;;;;5116601;28;20457;-80
2022/04/20 10:39:41;;;;;;;0.70;0.30;;;;;;;;;;5113963;28;20460;-80
2022/04/20 10:42:30;;;;;;;1.13;0.40;;;;;;;;;;5115389;28;20443;-79
2022/04/20 10:45:05;;;;;;;0.60;0.10;;;;;;;;;;5113554;28;20443;-79
2022/04/20 10:47:42;;;;;;;0.60;0.10;;;;;;;;;;5117564;28;20537;-80
2022/04/20 10:51:05;;;;;;;0.60;0.10;;;15.00;99.90;;;;;;5034581;28;20498;-81
2022/04/20 10:53:46;;;;;;;0.60;0.20;;;;;;;;;;5037902;28;20987;-79
2022/04/20 10:56:22;;;;;;;0.60;0.10;;;15.30;99.90;;;;;;5033220;28;20472;-79
2022/04/20 10:59:20;;;;;;;0.70;0.40;;;;;;;;;;5018445;28;20444;-79
2022/04/20 11:02:30;;;;;;;0.93;0.83;;;15.20;99.90;;;;;;5019008;28;20444;-81
2022/04/20 11:05:13;;;;;;;0.60;0.20;;;;;;;;;;5022910;28;20467;-80
2022/04/20 11:08:04;;;;;;;1.43;0.83;;;15.00;99.90;;;;;;5052576;28;20997;-80
2022/04/20 11:10:40;;;;;;;0.60;0.10;;;;;;;;;;5100395;28;20441;-82
2022/04/20 11:19:08;;;;;;;0.60;0.10;;;;;;;;;;5135763;28;20432;-80
2022/04/20 11:22:08;;;;;;;0.90;0.53;;;;;;;;;;5133939;28;20428;-81
2022/04/20 11:25:02;;;;;;;0.60;0.30;;;;;;;;;;5125929;28;20476;-81
2022/04/20 11:27:34;;;;;;;0.60;0.20;;;;;;;;;;5124609;28;20471;-81
2022/04/20 11:30:06;;;;;;;1.30;0.60;;;;;;;;;;5127053;28;20469;-80
2022/04/20 11:32:35;;;;;;;0.60;0.10;;;;;;;;;;5122794;28;20919;-81
2022/04/20 11:35:19;;;;;;;0.90;0.37;;;;;;;;;;5121358;28;20458;-81
2022/04/20 11:38:09;;;;;;;0.60;0.40;;;;;;;;;;5127072;28;20434;-80
2022/04/20 11:47:12;;;;;;;0.73;0.27;;;;;;;;;;5027242;28;20498;-81
2022/04/20 11:49:44;;;;;;;1.20;0.60;;;15.50;99.90;;;;;;5058443;28;21002;-80
2022/04/20 11:52:17;;;;;;;0.80;0.27;;;;;;;;;;5062916;28;20462;-81
2022/04/20 11:54:47;;;;;;;0.70;0.50;;;15.50;99.90;;;;;;5067609;28;20505;-79
2022/04/20 11:57:19;;;;;;;0.80;0.60;;;15.50;99.90;;;;;;5061963;28;20985;-80
2022/04/20 11:59:54;;;;;;;2.83;0.50;;;;;;;;;;5059011;28;20446;-81
2022/04/20 12:02:26;;;;;;;1.10;0.60;;;;;;;;;;5062856;28;20457;-81
2022/04/20 12:05:14;;;;;;;0.60;0.10;;;;;;;;;;5065442;28;20455;-80
2022/04/20 12:07:45;;;;;;;0.60;0.10;;;;;;;;;;5049845;28;20537;-79
2022/04/20 12:10:15;;;;;;;0.60;0.30;;;15.90;99.90;;;;;;5062806;28;20449;-81
2022/04/20 12:12:53;;;;;;;0.60;0.10;;;;;;;;;;5060673;28;20554;-81
2022/04/20 12:15:24;;;;;;;0.60;0.10;;;;;;;;;;5087023;28;20540;-82
2022/04/20 12:18:03;;;;;;;0.80;0.60;;;;;;;;;;5118200;28;20435;-81
2022/04/20 12:20:34;;;;;;;0.60;0.20;;;;;;;;;;5122377;28;20461;-81
2022/04/20 12:26:07;;;;;;;;;;;;;;;;;;;;;
2022/04/20 12:28:45;;;;;;;0.60;0.30;;;;;;;;;;5122289;28;20486;-82
2022/04/20 12:34:25;;;;;;;0.70;0.40;;;;;;;;;;5116731;28;20504;-81
2022/04/20 12:37:03;;;;;;;0.63;0.27;;;;;;;;;;5117586;28;20873;-84
2022/04/20 12:46:20;;;;;;;0.60;0.20;;;;;;;;;;5117713;28;20471;-81
2022/04/20 12:48:59;;;;;;;0.60;0.10;;;;;;;;;;5104059;28;20517;-81
2022/04/20 12:51:32;;;;;;;0.60;0.10;;;;;;;;;;5097490;28;20454;-80
2022/04/20 12:54:17;;;;;;;0.60;0.17;;;;;;;;;;5097186;28;20536;-81
2022/04/20 13:03:15;;;;;;;1.33;1.23;;;;;;;;;;5120881;28;20530;-81
2022/04/20 13:05:55;;;;;;;0.60;0.20;;;;;;;;;;5118730;28;20456;-81
2022/04/20 13:08:29;;;;;;;0.60;0.20;;;17.60;99.90;;;;;;5102486;28;20488;-81
2022/04/20 13:11:00;;;;;;;0.60;0.20;;;;;;;;;;5113560;28;20474;-80
2022/04/20 13:16:41;;;;;;;0.60;0.20;;;;;;;;;;5114289;28;20596;-81
2022/04/20 13:19:33;;;;;;;0.60;0.10;;;;;;;;;;5119763;28;20489;-81
2022/04/20 13:31:06;;;;;;;0.60;0.10;;;17.30;99.90;;;;;;5094161;27;20463;-81
2022/04/20 13:33:50;;;;;;;;;;;;;;;;;;;;;
2022/04/20 13:36:33;;;;;;;0.80;0.40;;;;;;;;;;5108085;22;20497;-80
2022/04/20 13:39:03;;;;;;;0.60;0.20;;;17.40;99.90;;;;;;5027383;28;20456;-82
2022/04/20 13:41:31;;;;;;;0.60;0.20;;;17.40;99.90;;;;;;5046300;28;20439;-82
2022/04/20 13:44:00;;;;;;;0.93;0.47;;;;;;;;;;5044931;28;20439;-79
2022/04/20 13:46:28;;;;;;;0.60;0.20;;;17.50;99.90;;;;;;5052504;28;20619;-79
2022/04/20 13:49:05;;;;;;;0.60;0.10;;;17.60;99.90;;;;;;5061060;28;20495;-80
2022/04/20 13:51:33;;;;;;;0.60;0.20;;;17.80;99.90;;;;;;5060231;28;20507;-81
2022/04/20 13:54:05;;;;;;;0.73;0.33;;;18.00;99.90;;;;;;5056151;28;20528;-80
2022/04/20 13:56:33;;;;;;;0.67;0.20;;;17.90;99.90;;;;;;5036624;28;20550;-82
2022/04/20 13:59:05;;;;;;;0.60;0.20;;;17.80;99.90;;;;;;5036749;28;20451;-81
2022/04/20 14:01:33;;;;;;;0.60;0.10;;;17.80;99.90;;;;;;5038419;28;20570;-81
2022/04/20 14:04:03;;;;;;;0.70;0.40;;;18.00;99.90;;;;;;5035681;28;20435;-81
2022/04/20 14:06:30;;;;;;;0.60;0.13;;;18.10;99.90;;;;;;5036676;28;20474;-82
2022/04/20 14:08:58;;;;;;;0.60;0.20;;;18.30;99.90;;;;;;5040601;28;20482;-80
2022/04/20 14:11:28;;;;;;;0.60;0.10;;;;;;;;;;5039850;28;20445;-82
2022/04/20 14:13:57;;;;;;;1.10;0.97;;;18.20;99.90;;;;;;5038338;28;20442;-82
2022/04/20 14:16:27;;;;;;;0.60;0.10;;;18.30;99.90;;;;;;5036867;28;20496;-79
2022/04/20 14:18:55;;;;;;;0.60;0.10;;;18.40;99.90;;;;;;5039716;28;20488;-82
2022/04/20 14:21:24;;;;;;;0.60;0.10;;;18.40;99.90;;;;;;5036400;28;20453;-80
2022/04/20 14:23:52;;;;;;;0.60;0.10;;;;;;;;;;5051563;28;20459;-81
2022/04/20 14:32:23;;;;;;;0.90;0.37;;;;;;;;;;5035327;28;20531;-82
2022/04/20 14:34:52;;;;;;;0.60;0.10;;;;;;;;;;5056418;28;20491;-81
2022/04/20 14:37:21;;;;;;;0.60;0.10;;;;;;;;;;5052500;28;20557;-80
2022/04/20 14:39:49;;;;;;;0.60;0.10;;;19.00;99.90;;;;;;5053141;28;20444;-80
2022/04/20 14:42:19;;;;;;;1.00;0.70;;;;;;;;;;5055942;28;20485;-83
2022/04/20 14:44:50;;;;;;;0.60;0.10;;;;;;;;;;5052297;28;20527;-80
2022/04/20 14:47:20;;;;;;;0.70;0.20;;;;;;;;;;5054896;28;20460;-82
2022/04/20 14:49:49;;;;;;;1.57;0.63;;;;;;;;;;5056283;28;20477;-81
2022/04/20 14:52:20;;;;;;;0.70;0.30;;;18.20;99.90;;;;;;5056376;28;20508;-81